createdAt,value
2017-08-28T00:01:03.521Z,92.20
2017-08-28T00:03:30.941Z,91.90
2017-08-28T00:05:58.440Z,92.00
2017-08-28T00:08:25.878Z,91.90
2017-08-28T00:10:53.293Z,91.60
2017-08-28T00:13:20.825Z,91.70
2017-08-28T00:15:48.264Z,92.30
2017-08-28T00:18:15.733Z,92.50
2017-08-28T00:20:43.168Z,92.70
2017-08-28T00:23:10.593Z,92.80
2017-08-28T00:25:38.809Z,93.30
2017-08-28T00:28:06.265Z,93.30
2017-08-28T00:30:33.723Z,92.70
2017-08-28T00:33:01.197Z,92.40
2017-08-28T00:35:28.632Z,93.10
2017-08-28T00:37:56.053Z,93.10
2017-08-28T00:40:23.494Z,93.30
2017-08-28T00:42:50.909Z,93.60
2017-08-28T00:45:18.356Z,93.90
2017-08-28T00:47:45.784Z,93.90
2017-08-28T00:50:13.211Z,93.80
2017-08-28T00:52:40.632Z,93.70
2017-08-28T00:55:08.100Z,94.00
2017-08-28T00:57:35.529Z,93.90
2017-08-28T01:00:03.038Z,94.30
2017-08-28T01:02:30.563Z,94.10
2017-08-28T01:04:58.021Z,94.20
2017-08-28T01:07:25.476Z,94.40
2017-08-28T01:09:52.900Z,94.80
2017-08-28T01:12:20.379Z,95.10
2017-08-28T01:14:47.836Z,95.10
2017-08-28T01:17:15.244Z,94.80
2017-08-28T01:19:42.677Z,94.20
2017-08-28T01:22:10.105Z,94.00
2017-08-28T01:24:37.520Z,94.40
2017-08-28T01:27:04.946Z,94.30
2017-08-28T01:29:32.375Z,94.50
2017-08-28T01:31:59.832Z,94.80
2017-08-28T01:34:27.273Z,94.80
2017-08-28T01:36:54.696Z,95.00
2017-08-28T01:39:22.133Z,94.90
2017-08-28T01:41:49.569Z,94.90
2017-08-28T01:44:17.100Z,95.00
2017-08-28T01:46:44.561Z,95.20
2017-08-28T01:49:12.016Z,95.60
2017-08-28T01:51:39.432Z,95.70
2017-08-28T01:54:07.664Z,96.30
2017-08-28T01:56:35.081Z,96.20
2017-08-28T01:59:02.503Z,96.70
2017-08-28T02:01:30.721Z,96.50
2017-08-28T02:03:58.179Z,96.50
2017-08-28T02:06:25.600Z,96.50
2017-08-28T02:08:53.049Z,96.20
2017-08-28T02:11:20.561Z,96.30
2017-08-28T02:13:48.049Z,96.40
2017-08-28T02:16:15.565Z,96.20
2017-08-28T02:18:42.988Z,96.50
2017-08-28T02:21:11.177Z,96.60
2017-08-28T02:23:38.657Z,96.60
2017-08-28T02:26:06.104Z,96.50
2017-08-28T02:28:33.566Z,96.10
2017-08-28T02:31:00.980Z,96.20
2017-08-28T02:33:29.175Z,96.20
2017-08-28T02:35:56.595Z,96.10
2017-08-28T02:38:24.205Z,96.50
2017-08-28T02:40:51.617Z,96.70
2017-08-28T02:43:19.120Z,96.90
2017-08-28T02:45:46.552Z,97.10
2017-08-28T02:48:13.994Z,97.30
2017-08-28T02:50:41.417Z,97.20
2017-08-28T02:53:09.078Z,97.30
2017-08-28T02:55:36.469Z,97.40
2017-08-28T02:58:03.902Z,97.40
2017-08-28T03:00:31.311Z,97.80
2017-08-28T03:02:58.789Z,98.40
2017-08-28T03:05:26.219Z,98.30
2017-08-28T03:07:53.656Z,98.20
2017-08-28T03:10:21.840Z,98.40
2017-08-28T03:12:49.292Z,98.40
2017-08-28T03:15:16.876Z,98.30
2017-08-28T03:17:44.328Z,98.50
2017-08-28T03:20:11.764Z,97.80
2017-08-28T03:22:39.257Z,98.20
2017-08-28T03:25:06.701Z,98.20
2017-08-28T03:27:34.137Z,98.10
2017-08-28T03:33:00.606Z,98.10
2017-08-28T03:35:28.034Z,98.10
2017-08-28T03:37:55.461Z,98.00
2017-08-28T03:40:22.900Z,98.30
2017-08-28T03:42:50.327Z,98.80
2017-08-28T03:45:17.762Z,98.90
2017-08-28T03:47:45.198Z,99.10
2017-08-28T03:50:12.646Z,99.30
2017-08-28T03:52:40.063Z,99.50
2017-08-28T03:55:07.510Z,99.20
2017-08-28T03:57:34.956Z,99.40
2017-08-28T04:00:02.521Z,99.50
2017-08-28T04:02:31.091Z,99.40
2017-08-28T04:04:58.610Z,99.30
2017-08-28T04:07:26.061Z,99.70
2017-08-28T04:09:54.537Z,99.70
2017-08-28T04:12:24.113Z,99.70
2017-08-28T04:14:51.566Z,99.60
2017-08-28T04:17:19.009Z,99.40
2017-08-28T04:19:47.209Z,98.80
2017-08-28T04:22:14.633Z,98.70
2017-08-28T04:24:42.124Z,99.00
2017-08-28T04:27:09.588Z,98.90
2017-08-28T04:29:37.046Z,98.90
2017-08-28T04:32:04.490Z,99.20
2017-08-28T04:34:31.911Z,98.90
2017-08-28T04:36:59.521Z,99.00
2017-08-28T04:39:26.958Z,99.00
2017-08-28T04:41:54.399Z,98.90
2017-08-28T04:44:21.889Z,98.90
2017-08-28T04:46:49.338Z,99.00
2017-08-28T04:49:16.767Z,99.10
2017-08-28T04:51:44.270Z,99.10
2017-08-28T04:54:11.739Z,99.20
2017-08-28T04:56:39.185Z,99.20
2017-08-28T04:59:06.707Z,99.10
2017-08-28T05:01:34.313Z,99.10
2017-08-28T05:04:01.733Z,99.30
2017-08-28T05:06:29.161Z,99.10
2017-08-28T05:08:56.661Z,98.90
2017-08-28T05:11:24.140Z,98.80
2017-08-28T05:13:52.584Z,98.80
2017-08-28T05:16:20.044Z,98.80
2017-08-28T05:18:47.472Z,98.90
2017-08-28T05:21:15.789Z,98.80
2017-08-28T05:23:43.224Z,98.80
2017-08-28T05:26:10.658Z,98.80
2017-08-28T05:28:38.089Z,98.60
2017-08-28T05:31:05.516Z,98.40
2017-08-28T05:33:32.948Z,98.40
2017-08-28T05:36:00.382Z,98.40
2017-08-28T05:38:27.970Z,98.20
2017-08-28T05:40:55.629Z,98.30
2017-08-28T05:43:23.202Z,98.30
2017-08-28T05:45:52.640Z,98.20
2017-08-28T05:48:20.084Z,98.10
2017-08-28T05:50:47.620Z,97.90
2017-08-28T05:53:15.065Z,97.70
2017-08-28T05:55:42.497Z,97.60
2017-08-28T05:58:10.061Z,97.20
2017-08-28T06:00:37.574Z,97.00
2017-08-28T06:03:05.008Z,96.90
2017-08-28T06:05:32.477Z,96.50
2017-08-28T06:07:59.920Z,96.20
2017-08-28T06:10:27.392Z,96.00
2017-08-28T06:12:55.944Z,95.80
2017-08-28T06:15:23.362Z,95.90
2017-08-28T06:17:50.870Z,95.80
2017-08-28T06:20:18.529Z,95.70
2017-08-28T06:22:46.098Z,95.70
2017-08-28T06:25:13.527Z,95.70
2017-08-28T06:27:41.056Z,95.80
2017-08-28T06:30:08.489Z,95.60
2017-08-28T06:32:35.915Z,95.60
2017-08-28T06:35:03.358Z,95.50
2017-08-28T06:37:30.873Z,95.50
2017-08-28T06:39:58.538Z,95.50
2017-08-28T06:42:26.030Z,95.10
2017-08-28T06:44:53.485Z,95.10
2017-08-28T06:47:24.224Z,95.00
2017-08-28T06:49:51.692Z,94.70
2017-08-28T06:52:19.169Z,94.60
2017-08-28T06:54:46.635Z,94.60
2017-08-28T06:57:14.076Z,94.60
2017-08-28T06:59:41.553Z,94.60
2017-08-28T07:02:12.065Z,94.50
2017-08-28T07:04:39.537Z,94.40
2017-08-28T07:07:06.958Z,94.00
2017-08-28T07:09:34.425Z,94.00
2017-08-28T07:12:01.885Z,93.80
2017-08-28T07:14:29.428Z,93.60
2017-08-28T07:16:56.911Z,93.40
2017-08-28T07:19:24.384Z,93.00
2017-08-28T07:21:51.895Z,93.50
2017-08-28T07:24:19.387Z,93.10
2017-08-28T07:26:46.917Z,92.70
2017-08-28T07:29:15.441Z,92.30
2017-08-28T07:31:45.762Z,92.30
2017-08-28T07:34:16.153Z,91.40
2017-08-28T07:36:43.617Z,92.00
2017-08-28T07:39:11.109Z,91.40
2017-08-28T07:41:38.541Z,90.90
2017-08-28T07:44:05.976Z,90.80
2017-08-28T07:46:33.400Z,90.80
2017-08-28T07:49:01.669Z,90.40
2017-08-28T07:51:29.096Z,90.30
2017-08-28T07:53:56.543Z,90.30
2017-08-28T07:56:23.978Z,90.20
2017-08-28T07:58:51.405Z,89.30
2017-08-28T08:01:18.816Z,88.50
2017-08-28T08:03:46.369Z,88.40
2017-08-28T08:06:13.791Z,87.50
2017-08-28T08:08:41.258Z,86.80
2017-08-28T08:11:08.668Z,85.60
2017-08-28T08:13:36.100Z,85.50
2017-08-28T08:16:03.536Z,84.90
2017-08-28T08:18:31.003Z,84.70
2017-08-28T08:20:59.397Z,84.20
2017-08-28T08:23:26.932Z,83.00
2017-08-28T08:25:54.384Z,82.80
2017-08-28T08:28:21.881Z,82.30
2017-08-28T08:30:49.304Z,81.90
2017-08-28T08:33:22.438Z,82.00
2017-08-28T08:35:50.668Z,81.30
2017-08-28T08:38:18.124Z,82.20
2017-08-28T08:40:45.581Z,81.20
2017-08-28T08:43:13.000Z,79.70
2017-08-28T08:45:40.432Z,79.90
2017-08-28T08:48:07.885Z,79.30
2017-08-28T08:50:35.308Z,80.10
2017-08-28T08:53:02.763Z,78.70
2017-08-28T08:55:30.196Z,77.60
2017-08-28T08:57:57.621Z,78.50
2017-08-28T09:00:25.128Z,77.90
2017-08-28T09:02:52.533Z,76.60
2017-08-28T09:05:20.026Z,74.40
2017-08-28T09:07:47.429Z,71.80
2017-08-28T09:10:14.964Z,73.00
2017-08-28T09:12:42.419Z,73.50
2017-08-28T09:15:09.909Z,72.90
2017-08-28T09:17:37.357Z,69.40
2017-08-28T09:20:04.791Z,68.00
2017-08-28T09:22:32.208Z,68.10
2017-08-28T09:24:59.624Z,67.70
2017-08-28T09:27:27.060Z,68.10
2017-08-28T09:29:54.517Z,67.40
2017-08-28T09:32:23.008Z,65.00
2017-08-28T09:34:50.530Z,64.30
2017-08-28T09:37:17.961Z,66.00
2017-08-28T09:39:45.385Z,66.60
2017-08-28T09:42:12.822Z,66.30
2017-08-28T09:44:40.239Z,66.60
2017-08-28T09:47:07.667Z,66.80
2017-08-28T09:49:35.097Z,65.60
2017-08-28T09:52:02.537Z,63.20
2017-08-28T09:54:29.956Z,64.10
2017-08-28T09:56:57.433Z,62.90
2017-08-28T09:59:24.893Z,63.20
2017-08-28T10:01:52.348Z,63.80
2017-08-28T10:04:19.768Z,64.90
2017-08-28T10:06:47.200Z,65.60
2017-08-28T10:09:14.714Z,64.20
2017-08-28T10:11:42.874Z,61.30
2017-08-28T10:14:10.316Z,61.30
2017-08-28T10:16:37.800Z,59.70
2017-08-28T10:19:05.225Z,59.60
2017-08-28T10:21:32.660Z,59.80
2017-08-28T10:24:00.167Z,60.40
2017-08-28T10:26:27.629Z,59.10
2017-08-28T10:28:55.339Z,59.40
2017-08-28T10:31:25.159Z,58.90
2017-08-28T10:33:53.202Z,55.60
2017-08-28T10:36:23.204Z,56.10
2017-08-28T10:38:50.718Z,55.40
2017-08-28T10:41:18.197Z,56.00
2017-08-28T10:43:45.608Z,55.20
2017-08-28T10:46:13.855Z,55.00
2017-08-28T10:48:41.262Z,53.80
2017-08-28T10:51:08.704Z,55.50
2017-08-28T10:53:36.901Z,52.40
2017-08-28T10:56:04.374Z,52.40
2017-08-28T10:58:31.969Z,53.10
2017-08-28T11:00:59.493Z,53.90
2017-08-28T11:03:27.724Z,54.60
2017-08-28T11:05:56.586Z,55.40
2017-08-28T11:08:24.308Z,55.10
2017-08-28T11:10:53.538Z,55.20
2017-08-28T11:13:22.151Z,54.40
2017-08-28T11:15:50.353Z,54.50
2017-08-28T11:18:18.530Z,54.30
2017-08-28T11:20:45.969Z,54.30
2017-08-28T11:23:14.140Z,54.10
2017-08-28T11:25:41.621Z,54.00
2017-08-28T11:28:09.053Z,55.00
2017-08-28T11:30:37.241Z,53.40
2017-08-28T11:33:04.813Z,53.40
2017-08-28T11:35:32.243Z,53.90
2017-08-28T11:38:00.421Z,52.10
2017-08-28T11:40:27.907Z,52.10
2017-08-28T11:42:55.356Z,51.90
2017-08-28T11:45:22.837Z,52.20
2017-08-28T11:47:50.274Z,52.20
2017-08-28T11:50:17.729Z,50.20
2017-08-28T11:52:45.188Z,49.50
2017-08-28T11:55:12.620Z,50.40
2017-08-28T11:57:40.096Z,50.50
2017-08-28T12:00:07.536Z,50.30
2017-08-28T12:02:35.016Z,50.40
2017-08-28T12:05:02.444Z,50.40
2017-08-28T12:07:29.955Z,49.50
2017-08-28T12:09:57.389Z,46.80
2017-08-28T12:12:24.840Z,45.10
2017-08-28T12:14:52.288Z,43.60
2017-08-28T12:17:19.776Z,43.60
2017-08-28T12:19:47.210Z,41.90
2017-08-28T12:22:14.656Z,39.50
2017-08-28T12:24:42.116Z,36.60
2017-08-28T12:27:09.574Z,35.80
2017-08-28T12:29:36.992Z,36.50
2017-08-28T12:32:05.190Z,35.40
2017-08-28T12:34:32.758Z,35.50
2017-08-28T12:37:00.238Z,34.60
2017-08-28T12:39:27.681Z,34.40
2017-08-28T12:41:55.121Z,34.50
2017-08-28T12:44:22.534Z,36.00
2017-08-28T12:46:50.062Z,36.50
2017-08-28T12:49:17.491Z,33.30
2017-08-28T12:51:44.913Z,31.30
2017-08-28T12:54:12.328Z,32.50
2017-08-28T12:56:39.868Z,31.70
2017-08-28T12:59:07.330Z,33.00
2017-08-28T13:01:34.833Z,33.60
2017-08-28T13:04:02.344Z,35.80
2017-08-28T13:06:29.772Z,34.30
2017-08-28T13:08:57.260Z,33.80
2017-08-28T13:11:24.685Z,33.60
2017-08-28T13:13:52.095Z,30.80
2017-08-28T13:16:19.524Z,31.30
2017-08-28T13:18:46.954Z,28.20
2017-08-28T13:21:14.423Z,29.80
2017-08-28T13:23:41.825Z,29.30
2017-08-28T13:26:09.254Z,34.10
2017-08-28T13:28:36.710Z,37.50
2017-08-28T13:31:04.169Z,36.60
2017-08-28T13:33:31.597Z,37.50
2017-08-28T13:35:59.774Z,30.80
2017-08-28T13:38:27.201Z,30.70
2017-08-28T13:40:54.728Z,29.50
2017-08-28T13:43:22.145Z,29.20
2017-08-28T13:45:49.569Z,30.90
2017-08-28T13:48:17.077Z,29.50
2017-08-28T13:50:44.484Z,29.60
2017-08-28T13:53:11.925Z,26.80
2017-08-28T13:55:39.373Z,29.60
2017-08-28T13:58:06.791Z,32.90
2017-08-28T14:00:34.221Z,32.60
2017-08-28T14:03:01.633Z,31.80
2017-08-28T14:05:29.057Z,32.70
2017-08-28T14:08:03.308Z,31.30
2017-08-28T14:10:30.731Z,31.30
2017-08-28T14:12:58.189Z,31.00
2017-08-28T14:15:25.668Z,30.90
2017-08-28T14:17:53.202Z,32.90
2017-08-28T14:20:20.612Z,31.40
2017-08-28T14:22:48.113Z,29.80
2017-08-28T14:25:16.306Z,30.10
2017-08-28T14:27:43.714Z,30.10
2017-08-28T14:30:11.144Z,31.00
2017-08-28T14:32:39.329Z,34.90
2017-08-28T14:35:07.540Z,34.50
2017-08-28T14:37:34.984Z,34.30
2017-08-28T14:40:02.456Z,32.00
2017-08-28T14:42:30.411Z,29.10
2017-08-28T14:44:57.824Z,28.50
2017-08-28T14:47:25.628Z,28.60
2017-08-28T14:49:53.197Z,28.50
2017-08-28T14:52:20.668Z,28.70
2017-08-28T14:54:48.069Z,29.90
2017-08-28T14:57:15.544Z,30.40
2017-08-28T14:59:43.019Z,29.80
2017-08-28T15:02:10.444Z,28.60
2017-08-28T15:04:37.980Z,27.80
2017-08-28T15:07:05.385Z,26.70
2017-08-28T15:09:32.833Z,27.60
2017-08-28T15:12:00.316Z,26.50
2017-08-28T15:14:27.732Z,25.60
2017-08-28T15:16:55.216Z,26.10
2017-08-28T15:19:22.670Z,26.40
2017-08-28T15:21:50.125Z,26.10
2017-08-28T15:24:17.543Z,27.30
2017-08-28T15:26:44.964Z,28.40
2017-08-28T15:29:12.509Z,31.00
2017-08-28T15:31:39.956Z,32.20
2017-08-28T15:34:07.381Z,33.80
2017-08-28T15:36:34.860Z,35.40
2017-08-28T15:39:02.333Z,37.20
2017-08-28T15:41:29.762Z,37.30
2017-08-28T15:43:57.195Z,37.40
2017-08-28T15:46:25.394Z,36.20
2017-08-28T15:48:52.852Z,36.20
2017-08-28T15:51:20.297Z,36.60
2017-08-28T15:53:47.757Z,38.90
2017-08-28T15:56:15.943Z,34.50
2017-08-28T15:58:43.373Z,34.50
2017-08-28T16:01:10.855Z,34.30
2017-08-28T16:03:38.260Z,33.20
2017-08-28T16:06:05.768Z,36.00
2017-08-28T16:08:33.204Z,37.50
2017-08-28T16:11:00.639Z,39.40
2017-08-28T16:13:28.831Z,40.60
2017-08-28T16:15:56.340Z,40.60
2017-08-28T16:18:23.762Z,41.00
2017-08-28T16:20:52.049Z,41.70
2017-08-28T16:23:19.483Z,41.70
2017-08-28T16:25:46.953Z,41.70
2017-08-28T16:28:14.364Z,42.00
2017-08-28T16:30:41.878Z,41.90
2017-08-28T16:33:09.320Z,41.70
2017-08-28T16:35:36.735Z,43.50
2017-08-28T16:38:04.248Z,44.00
2017-08-28T16:40:31.699Z,43.60
2017-08-28T16:42:59.116Z,42.60
2017-08-28T16:45:26.529Z,43.10
2017-08-28T16:47:54.032Z,44.00
2017-08-28T16:50:21.512Z,44.20
2017-08-28T16:52:48.978Z,44.10
2017-08-28T16:55:16.436Z,44.80
2017-08-28T16:57:43.864Z,45.30
2017-08-28T17:00:12.277Z,45.40
2017-08-28T17:02:39.764Z,46.70
2017-08-28T17:05:07.214Z,47.00
2017-08-28T17:07:34.643Z,47.40
2017-08-28T17:10:02.065Z,48.30
2017-08-28T17:12:29.520Z,48.30
2017-08-28T17:14:56.944Z,48.00
2017-08-28T17:17:24.381Z,48.40
2017-08-28T17:19:51.812Z,49.10
2017-08-28T17:22:19.265Z,48.80
2017-08-28T17:24:46.729Z,49.00
2017-08-28T17:27:14.141Z,49.40
2017-08-28T17:29:43.515Z,50.20
2017-08-28T17:32:10.942Z,51.60
2017-08-28T17:34:38.399Z,52.00
2017-08-28T17:37:05.816Z,53.60
2017-08-28T17:39:33.293Z,53.30
2017-08-28T17:42:00.704Z,53.30
2017-08-28T17:44:28.172Z,54.00
2017-08-28T17:46:55.622Z,54.50
2017-08-28T17:49:23.116Z,54.80
2017-08-28T17:51:50.532Z,54.80
2017-08-28T17:54:18.785Z,55.40
2017-08-28T17:56:46.335Z,55.40
2017-08-28T17:59:13.776Z,55.60
2017-08-28T18:01:41.221Z,55.60
2017-08-28T18:04:08.653Z,55.90
2017-08-28T18:06:36.878Z,56.40
2017-08-28T18:09:04.302Z,56.40
2017-08-28T18:11:31.776Z,56.80
2017-08-28T18:13:59.206Z,57.10
2017-08-28T18:16:26.633Z,57.00
2017-08-28T18:18:54.816Z,57.50
2017-08-28T18:21:22.245Z,57.40
2017-08-28T18:23:49.668Z,57.70
2017-08-28T18:26:17.084Z,57.90
2017-08-28T18:28:44.517Z,58.20
2017-08-28T18:31:12.029Z,58.30
2017-08-28T18:33:39.485Z,58.40
2017-08-28T18:36:06.909Z,58.60
2017-08-28T18:38:35.124Z,58.80
2017-08-28T18:41:02.564Z,58.70
2017-08-28T18:43:29.992Z,58.90
2017-08-28T18:45:57.427Z,59.10
2017-08-28T18:48:24.860Z,59.30
2017-08-28T18:50:52.290Z,59.50
2017-08-28T18:53:19.768Z,59.70
2017-08-28T18:55:47.205Z,59.80
2017-08-28T18:58:14.662Z,60.20
2017-08-28T19:00:42.083Z,60.50
2017-08-28T19:03:09.585Z,61.00
2017-08-28T19:05:37.031Z,61.10
2017-08-28T19:08:04.492Z,61.40
2017-08-28T19:10:31.971Z,61.30
2017-08-28T19:12:59.380Z,61.50
2017-08-28T19:15:26.808Z,61.80
2017-08-28T19:17:54.249Z,62.40
2017-08-28T19:20:21.676Z,62.70
2017-08-28T19:22:49.100Z,63.00
2017-08-28T19:25:16.532Z,63.40
2017-08-28T19:27:44.727Z,64.10
2017-08-28T19:30:13.700Z,63.80
2017-08-28T19:32:43.069Z,64.20
2017-08-28T19:35:10.586Z,64.70
2017-08-28T19:37:38.033Z,65.00
2017-08-28T19:40:06.254Z,65.40
2017-08-28T19:42:34.427Z,65.30
2017-08-28T19:45:02.744Z,65.40
2017-08-28T19:47:30.264Z,65.30
2017-08-28T19:49:57.686Z,65.50
2017-08-28T19:52:25.115Z,65.60
2017-08-28T19:54:52.554Z,66.20
2017-08-28T19:57:20.045Z,67.20
2017-08-28T19:59:47.492Z,66.40
2017-08-28T20:02:14.964Z,66.60
2017-08-28T20:04:42.539Z,66.50
2017-08-28T20:07:10.731Z,67.00
2017-08-28T20:09:39.221Z,67.00
2017-08-28T20:12:06.770Z,67.00
2017-08-28T20:14:34.189Z,67.30
2017-08-28T20:17:01.617Z,67.70
2017-08-28T20:19:29.246Z,68.30
2017-08-28T20:21:58.237Z,68.60
2017-08-28T20:24:25.776Z,68.70
2017-08-28T20:26:53.208Z,68.80
2017-08-28T20:29:21.460Z,68.60
2017-08-28T20:31:48.960Z,68.60
2017-08-28T20:34:16.408Z,68.80
2017-08-28T20:36:43.831Z,68.70
2017-08-28T20:39:11.280Z,69.10
2017-08-28T20:41:38.815Z,69.50
2017-08-28T20:44:06.257Z,69.50
2017-08-28T20:46:33.684Z,69.90
2017-08-28T20:49:01.112Z,70.00
2017-08-28T20:51:28.696Z,70.10
2017-08-28T20:53:56.159Z,70.10
2017-08-28T20:56:23.607Z,69.60
2017-08-28T20:58:51.035Z,69.60
2017-08-28T21:01:18.548Z,69.80
2017-08-28T21:03:46.092Z,69.80
2017-08-28T21:06:13.541Z,70.10
2017-08-28T21:08:40.999Z,70.30
2017-08-28T21:11:09.581Z,70.60
2017-08-28T21:13:37.013Z,71.00
2017-08-28T21:16:04.521Z,70.90
2017-08-28T21:18:31.960Z,71.60
2017-08-28T21:20:59.384Z,72.10
2017-08-28T21:23:26.813Z,72.00
2017-08-28T21:25:54.996Z,72.40
2017-08-28T21:28:22.486Z,72.30
2017-08-28T21:30:49.903Z,73.00
2017-08-28T21:33:18.108Z,73.70
2017-08-28T21:35:45.532Z,73.70
2017-08-28T21:38:12.953Z,74.00
2017-08-28T21:40:40.375Z,74.00
2017-08-28T21:43:07.838Z,74.10
2017-08-28T21:45:35.273Z,74.30
2017-08-28T21:48:02.778Z,75.10
2017-08-28T21:50:30.202Z,76.00
2017-08-28T21:52:57.628Z,76.80
2017-08-28T21:55:25.045Z,77.60
2017-08-28T21:57:52.477Z,78.20
2017-08-28T22:00:19.926Z,78.60
2017-08-28T22:02:47.484Z,79.10
2017-08-28T22:05:14.941Z,78.70
2017-08-28T22:07:42.355Z,79.00
2017-08-28T22:10:09.858Z,78.50
2017-08-28T22:12:37.314Z,78.60
2017-08-28T22:15:04.777Z,78.80
2017-08-28T22:17:32.235Z,79.70
2017-08-28T22:19:59.682Z,79.70
2017-08-28T22:22:27.232Z,79.40
2017-08-28T22:24:54.660Z,79.10
2017-08-28T22:27:22.085Z,79.50
2017-08-28T22:29:49.624Z,79.60
2017-08-28T22:32:17.049Z,79.60
2017-08-28T22:34:44.463Z,79.80
2017-08-28T22:37:12.684Z,80.90
2017-08-28T22:39:40.148Z,79.90
2017-08-28T22:42:07.710Z,80.70
2017-08-28T22:44:35.185Z,80.80
2017-08-28T22:47:02.601Z,81.10
2017-08-28T22:49:30.025Z,80.60
2017-08-28T22:51:57.480Z,80.50
2017-08-28T22:54:25.674Z,79.90
2017-08-28T22:56:53.161Z,79.70
2017-08-28T22:59:20.628Z,79.50
2017-08-28T23:01:48.040Z,79.40
2017-08-28T23:04:15.484Z,79.20
2017-08-28T23:06:43.041Z,79.80
2017-08-28T23:09:10.464Z,79.30
2017-08-28T23:11:37.927Z,79.50
2017-08-28T23:14:05.385Z,79.20
2017-08-28T23:16:32.972Z,80.00
2017-08-28T23:19:00.428Z,79.10
2017-08-28T23:21:27.857Z,79.40
2017-08-28T23:23:55.284Z,79.50
2017-08-28T23:26:22.709Z,79.50
2017-08-28T23:28:50.229Z,79.60
2017-08-28T23:31:17.764Z,79.80
2017-08-28T23:33:45.273Z,80.30
2017-08-28T23:36:12.801Z,80.70
2017-08-28T23:38:40.274Z,80.60
2017-08-28T23:41:07.693Z,80.80
2017-08-28T23:43:35.201Z,80.90
2017-08-28T23:46:02.716Z,81.40
2017-08-28T23:48:30.143Z,82.00
2017-08-28T23:50:57.624Z,81.80
2017-08-28T23:53:25.095Z,82.10
2017-08-28T23:55:53.385Z,82.00
2017-08-28T23:58:20.869Z,81.90
